createdAt,value
2018-08-18T00:00:02.588Z,20.9
2018-08-18T00:05:08.063Z,20.8
2018-08-18T00:10:05.463Z,20.8
2018-08-18T00:15:05.812Z,20.8
2018-08-18T00:20:03.217Z,20.8
2018-08-18T00:25:02.596Z,20.8
2018-08-18T00:30:02.927Z,20.7
2018-08-18T00:35:07.647Z,20.6
2018-08-18T00:40:05.001Z,20.6
2018-08-18T00:45:05.436Z,20.6
2018-08-18T00:50:02.770Z,20.6
2018-08-18T00:55:18.366Z,20.5
2018-08-18T01:00:02.735Z,20.5
2018-08-18T01:05:10.648Z,20.4
2018-08-18T01:10:02.512Z,20.5
2018-08-18T01:15:02.698Z,20.4
2018-08-18T01:20:05.808Z,20.4
2018-08-18T01:25:05.147Z,20.3
2018-08-18T01:30:05.031Z,20.3
2018-08-18T01:35:15.522Z,20.3
2018-08-18T01:40:03.326Z,20.3
2018-08-18T01:45:05.262Z,20.2
2018-08-18T01:50:05.139Z,20.2
2018-08-18T01:55:05.385Z,20.2
2018-08-18T02:00:20.488Z,20.1
2018-08-18T02:05:05.690Z,20
2018-08-18T02:10:10.106Z,19.9
2018-08-18T02:15:02.913Z,19.9
2018-08-18T02:20:05.866Z,19.8
2018-08-18T02:25:05.200Z,19.8
2018-08-18T02:30:10.210Z,19.8
2018-08-18T02:35:05.465Z,19.8
2018-08-18T02:40:05.726Z,19.7
2018-08-18T02:45:02.567Z,19.7
2018-08-18T02:50:05.514Z,19.7
2018-08-18T02:55:15.887Z,19.7
2018-08-18T03:00:03.311Z,19.7
2018-08-18T03:05:02.805Z,19.6
2018-08-18T03:10:17.904Z,19.6
2018-08-18T03:15:05.634Z,19.6
2018-08-18T03:20:05.619Z,19.6
2018-08-18T03:25:10.029Z,19.6
2018-08-18T03:30:07.508Z,19.6
2018-08-18T03:35:05.350Z,19.6
2018-08-18T03:40:03.218Z,19.6
2018-08-18T03:45:07.663Z,19.5
2018-08-18T03:50:05.734Z,19.5
2018-08-18T03:55:05.121Z,19.5
2018-08-18T04:00:02.490Z,19.5
2018-08-18T04:05:23.071Z,19.3
2018-08-18T04:10:02.873Z,19.3
2018-08-18T04:15:03.339Z,19.2
2018-08-18T04:20:02.824Z,19.2
2018-08-18T04:25:03.142Z,19.2
2018-08-18T04:30:05.100Z,19.2
2018-08-18T04:35:05.450Z,19
2018-08-18T04:40:08.415Z,19
2018-08-18T04:45:05.245Z,19
2018-08-18T04:50:10.218Z,19
2018-08-18T04:55:05.598Z,19
2018-08-18T05:00:05.654Z,19
2018-08-18T05:05:03.321Z,19
2018-08-18T05:10:05.677Z,19
2018-08-18T05:15:02.436Z,19
2018-08-18T05:20:07.952Z,18.9
2018-08-18T05:25:08.355Z,18.9
2018-08-18T05:30:02.773Z,18.9
2018-08-18T05:35:03.148Z,18.9
2018-08-18T05:40:05.546Z,18.8
2018-08-18T05:45:05.890Z,18.8
2018-08-18T05:50:20.898Z,18.9
2018-08-18T05:55:02.557Z,18.9
2018-08-18T06:00:03.001Z,18.9
2018-08-18T06:05:03.256Z,18.9
2018-08-18T06:10:03.116Z,19
2018-08-18T06:15:15.197Z,19.1
2018-08-18T06:20:02.629Z,19.1
2018-08-18T06:25:05.612Z,19.2
2018-08-18T06:30:03.079Z,19.2
2018-08-18T06:35:20.148Z,19.2
2018-08-18T06:40:05.559Z,19.3
2018-08-18T06:45:02.387Z,19.3
2018-08-18T06:50:07.786Z,19.4
2018-08-18T06:55:05.870Z,19.6
2018-08-18T07:00:02.637Z,19.6
2018-08-18T07:05:15.749Z,19.9
2018-08-18T07:10:05.076Z,20.1
2018-08-18T07:15:05.435Z,20.2
2018-08-18T07:20:13.029Z,20.4
2018-08-18T07:25:03.250Z,20.4
2018-08-18T07:30:05.428Z,20.7
2018-08-18T07:35:05.821Z,20.8
2018-08-18T07:40:02.688Z,20.8
2018-08-18T07:45:10.634Z,20.9
2018-08-18T07:50:10.770Z,21
2018-08-18T07:55:02.464Z,21
2018-08-18T08:00:08.181Z,21.4
2018-08-18T08:05:02.548Z,21.4
2018-08-18T08:10:02.538Z,21.6
2018-08-18T08:15:05.477Z,21.7
2018-08-18T08:20:03.207Z,21.7
2018-08-18T08:25:05.133Z,21.8
2018-08-18T08:30:05.007Z,21.8
2018-08-18T08:35:08.042Z,21.7
2018-08-18T08:40:02.914Z,8.9
2018-08-18T08:45:10.780Z,21.9
2018-08-18T08:50:03.176Z,21.9
2018-08-18T08:55:07.561Z,22
2018-08-18T09:00:03.056Z,22
2018-08-18T09:05:05.867Z,21.9
2018-08-18T09:10:02.756Z,21.9
2018-08-18T09:15:05.863Z,21.8
2018-08-18T09:20:03.284Z,21.8
2018-08-18T09:25:02.625Z,21.9
2018-08-18T09:30:08.072Z,22.2
2018-08-18T09:35:07.611Z,22.3
2018-08-18T09:40:02.657Z,22.3
2018-08-18T09:45:03.016Z,22.4
2018-08-18T09:50:02.538Z,22.6
2018-08-18T09:55:02.981Z,22.7
2018-08-18T10:00:02.416Z,22.8
2018-08-18T10:05:05.394Z,22.9
2018-08-18T10:10:05.884Z,23
2018-08-18T10:15:10.324Z,22.8
2018-08-18T10:20:05.336Z,22.9
2018-08-18T10:25:04.882Z,23
2018-08-18T10:30:05.786Z,23.2
2018-08-18T10:35:05.144Z,23.3
2018-08-18T10:40:03.036Z,23.2
2018-08-18T10:45:25.213Z,23.3
2018-08-18T10:50:17.810Z,23.3
2018-08-18T10:55:03.108Z,23.3
2018-08-18T11:00:07.539Z,23.7
2018-08-18T11:05:10.558Z,24
2018-08-18T11:10:02.444Z,24
2018-08-18T11:15:02.847Z,24.2
2018-08-18T11:20:03.323Z,24.2
2018-08-18T11:25:05.443Z,24.3
2018-08-18T11:30:08.171Z,24.6
2018-08-18T11:35:07.468Z,24.7
2018-08-18T11:40:07.594Z,24.6
2018-08-18T11:45:15.569Z,24.7
2018-08-18T11:50:10.519Z,24.8
2018-08-18T11:55:02.386Z,24.8
2018-08-18T12:00:07.881Z,25
2018-08-18T12:05:10.712Z,25.2
2018-08-18T12:10:02.565Z,25.2
2018-08-18T12:15:05.533Z,25.3
2018-08-18T12:20:05.558Z,25.4
2018-08-18T12:25:02.426Z,25.4
2018-08-18T12:30:10.413Z,25.7
2018-08-18T12:35:03.277Z,25.6
2018-08-18T12:40:08.400Z,25.9
2018-08-18T12:45:02.797Z,25.9
2018-08-18T12:50:03.361Z,26
2018-08-18T12:55:05.273Z,26
2018-08-18T13:00:02.926Z,26
2018-08-18T13:05:02.457Z,26
2018-08-18T13:10:04.945Z,26.5
2018-08-18T13:15:02.957Z,26.5
2018-08-18T13:20:02.406Z,26.6
2018-08-18T13:25:08.034Z,26.5
2018-08-18T13:30:10.087Z,26.3
2018-08-18T13:35:05.345Z,26.1
2018-08-18T13:40:08.482Z,26.2
2018-08-18T13:45:15.443Z,26.1
2018-08-18T13:50:02.836Z,26.1
2018-08-18T13:55:07.435Z,26
2018-08-18T14:00:02.875Z,26.1
2018-08-18T14:05:04.977Z,25.9
2018-08-18T14:10:05.398Z,25.7
2018-08-18T14:15:05.754Z,25.6
2018-08-18T14:20:10.813Z,25.6
2018-08-18T14:25:05.365Z,25.8
2018-08-18T14:30:05.365Z,26.1
2018-08-18T14:35:05.599Z,26.5
2018-08-18T14:40:02.501Z,26.4
2018-08-18T14:45:08.076Z,26.9
2018-08-18T14:50:10.266Z,26.9
2018-08-18T14:55:25.380Z,27.1
2018-08-18T15:00:05.326Z,27.2
2018-08-18T15:05:04.944Z,27.2
2018-08-18T15:10:02.787Z,27.2
2018-08-18T15:15:03.293Z,27.4
2018-08-18T15:20:02.807Z,27.6
2018-08-18T15:25:08.211Z,30.2
2018-08-18T15:30:05.188Z,31.4
2018-08-18T15:35:05.670Z,31
2018-08-18T15:40:10.395Z,31.4
2018-08-18T15:45:02.505Z,31.4
2018-08-18T15:50:30.794Z,30.4
2018-08-18T15:55:09.997Z,29.9
2018-08-18T16:00:02.365Z,29.9
2018-08-18T16:05:20.557Z,29.2
2018-08-18T16:10:04.984Z,28.8
2018-08-18T16:15:02.944Z,28.8
2018-08-18T16:20:04.983Z,28.6
2018-08-18T16:25:08.138Z,28.4
2018-08-18T16:30:05.193Z,28.3
2018-08-18T16:35:03.090Z,28.3
2018-08-18T16:40:05.557Z,28.1
2018-08-18T16:45:02.454Z,28
2018-08-18T16:50:07.909Z,27.7
2018-08-18T16:55:05.860Z,27.4
2018-08-18T17:00:02.438Z,27.4
2018-08-18T17:05:02.916Z,27.4
2018-08-18T17:10:03.285Z,27.3
2018-08-18T17:15:05.445Z,27.1
2018-08-18T17:20:02.858Z,27
2018-08-18T17:25:08.420Z,26.6
2018-08-18T17:30:07.991Z,26.6
2018-08-18T17:35:02.735Z,26.6
2018-08-18T17:40:02.597Z,26.5
2018-08-18T17:45:10.673Z,26.2
2018-08-18T17:50:05.502Z,26.2
2018-08-18T17:55:04.971Z,26
2018-08-18T18:00:17.690Z,25.9
2018-08-18T18:05:05.781Z,25.7
2018-08-18T18:10:02.719Z,25.6
2018-08-18T18:15:20.894Z,25.3
2018-08-18T18:20:03.316Z,25.2
2018-08-18T18:25:07.930Z,25
2018-08-18T18:30:08.422Z,24.9
2018-08-18T18:35:10.287Z,24.7
2018-08-18T18:40:05.642Z,24.6
2018-08-18T18:45:02.555Z,24.6
2018-08-18T18:50:02.949Z,24.5
2018-08-18T18:55:02.446Z,24.3
2018-08-18T19:00:05.411Z,24
2018-08-18T19:05:15.922Z,23.8
2018-08-18T19:10:02.806Z,23.8
2018-08-18T19:15:08.276Z,23.4
2018-08-18T19:20:15.596Z,23.3
2018-08-18T19:25:04.917Z,23.2
2018-08-18T19:30:13.422Z,23.1
2018-08-18T19:35:07.780Z,22.8
2018-08-18T19:40:07.709Z,22.7
2018-08-18T19:45:08.064Z,22.6
2018-08-18T19:50:04.978Z,22.4
2018-08-18T19:55:02.832Z,22.4
2018-08-18T20:00:08.245Z,22.1
2018-08-18T20:05:02.626Z,22.1
2018-08-18T20:10:07.513Z,21.8
2018-08-18T20:15:07.906Z,21.7
2018-08-18T20:20:18.552Z,21.6
2018-08-18T20:25:05.288Z,21.5
2018-08-18T20:30:12.889Z,21.4
2018-08-18T20:35:03.132Z,21.4
2018-08-18T20:40:03.052Z,21.3
2018-08-18T20:45:02.539Z,21.2
2018-08-18T20:50:15.698Z,20.9
2018-08-18T20:55:10.932Z,20.8
2018-08-18T21:00:05.914Z,20.7
2018-08-18T21:05:05.543Z,20.7
2018-08-18T21:10:37.834Z,20.5
2018-08-18T21:15:10.779Z,20.4
2018-08-18T21:20:13.279Z,20.4
2018-08-18T21:25:02.576Z,20.4
2018-08-18T21:30:05.642Z,20.3
2018-08-18T21:35:03.348Z,20.2
2018-08-18T21:40:05.047Z,20.1
2018-08-18T21:45:02.914Z,20.1
2018-08-18T21:50:04.904Z,19.9
2018-08-18T21:55:02.818Z,19.8
2018-08-18T22:00:03.162Z,19.8
2018-08-18T22:05:05.094Z,19.6
2018-08-18T22:10:02.971Z,19.6
2018-08-18T22:15:02.401Z,19.6
2018-08-18T22:20:02.816Z,19.5
2018-08-18T22:25:05.777Z,19.2
2018-08-18T22:30:08.193Z,19.2
2018-08-18T22:35:05.086Z,19.2
2018-08-18T22:40:05.426Z,19.1
2018-08-18T22:45:02.368Z,19.1
2018-08-18T22:50:05.266Z,18.9
2018-08-18T22:55:08.206Z,18.9
2018-08-18T23:00:07.632Z,18.8
2018-08-18T23:05:13.043Z,18.8
2018-08-18T23:10:05.619Z,18.7
2018-08-18T23:15:04.987Z,18.7
2018-08-18T23:20:32.938Z,17.8
2018-08-18T23:25:05.096Z,18.5
2018-08-18T23:30:07.530Z,18.5
2018-08-18T23:35:08.080Z,18.4
2018-08-18T23:40:02.912Z,18.4
2018-08-18T23:45:03.285Z,18.4
2018-08-18T23:50:05.226Z,18.3
2018-08-18T23:55:05.553Z,18.2
